MSC Topaz — D5NI2 — position and weather

sailwx.info

Track history (hours):
 
Tides and Currents Weather Stations Pressure Air Temp Water Temp Dewpoint Dewpoint Depression Visibility Wind Speed Wind Dir Waves Ship Positions

MSC Topaz

Last reported at 2018-Jun-22 18:30 UTC. Time now 2018-Jun-22 18:47 UTC.
Position N 41°18' E 002°09'.

Length 366 m; draft 15.6 m.

Type: Ship (hazmat cat A). MMSI: 636017916.

Date/timePositionNaut miles runAvg speedWind from/ knotsBaromVisibWave heightAir tempDewpointWater temp
2018-Jun-22 18:30N 41°18' E 002°09'1 2.1
2018-Jun-22 18:00N 41°19' E 002°10'1 2.5
2018-Jun-22 17:30N 41°18' E 002°11'3 6.4
2018-Jun-22 17:00N 41°15' E 002°13'1 2.8
2018-Jun-22 16:30N 41°15' E 002°14'0 0.5
2018-Jun-22 16:00N 41°15' E 002°15'0 0.7
2018-Jun-22 15:30N 41°15' E 002°15'1 2.6
2018-Jun-22 15:00N 41°14' E 002°17'611.3
2018-Jun-22 14:30N 41°12' E 002°23'815.3
2018-Jun-22 14:00N 41°08' E 002°32'918.8
2018-Jun-22 13:31N 41°04' E 002°43'1019.5
2018-Jun-22 13:01N 40°59' E 002°55'13519.5
2018-Jun-22 06:05N 39°56' E 005°31'219.7
2018-Jun-22 06:00N 39°55' E 005°33'1019.6
2018-Jun-22 05:30N 39°51' E 005°44'1019.5
2018-Jun-22 04:59N 39°46' E 005°56'2219.3
2018-Jun-22 03:50N 39°35' E 006°22'3719.8
2018-Jun-22 01:57N 39°17' E 007°04'919.8
2018-Jun-22 01:30N 39°13' E 007°14'2919.6
2018-Jun-22 00:01N 38°60' E 007°47'219.7
2018-Jun-21 23:56N 38°59' E 007°49'819.6
2018-Jun-21 23:30N 38°55' E 007°58'27819.2
2018-Jun-21 09:00N 36°54' E 013°16'919.2
2018-Jun-21 08:31N 36°51' E 013°27'1121.0
2018-Jun-21 08:00N 36°47' E 013°39'1120.9
2018-Jun-21 07:30N 36°43' E 013°52'1020.6
2018-Jun-21 07:00N 36°39' E 014°04'1019.2
2018-Jun-21 06:29N 36°36' E 014°15'817.1
2018-Jun-21 06:00N 36°33' E 014°25'916.8
2018-Jun-21 05:29N 36°30' E 014°35'916.2
2018-Jun-21 04:57N 36°29' E 014°45'42616.2
2018-Jun-20 02:40N 37°13' E 023°35'321.4
2018-Jun-20 02:30N 37°16' E 023°36'1020.9
2018-Jun-20 02:01N 37°27' E 023°39'1020.7
2018-Jun-20 01:31N 37°37' E 023°41'1020.3
2018-Jun-20 01:01N 37°46' E 023°37'816.3
2018-Jun-20 00:30N 37°55' E 023°37'2 4.7
2018-Jun-20 00:00N 37°57' E 023°36'1 1.2
2018-Jun-19 23:30N 37°57' E 023°36'0 0.0
2018-Jun-19 23:00N 37°57' E 023°36'0 0.0
2018-Jun-19 22:30N 37°57' E 023°36'0 0.0
2018-Jun-19 22:00N 37°57' E 023°36'0 0.0
2018-Jun-19 21:30N 37°57' E 023°36'0 0.0
2018-Jun-19 21:00N 37°57' E 023°36'0 0.0
2018-Jun-19 20:30N 37°57' E 023°36'0 0.0
2018-Jun-19 20:00N 37°57' E 023°36'0 0.0
2018-Jun-19 19:30N 37°57' E 023°36'0 0.0
2018-Jun-19 19:00N 37°57' E 023°36'0 0.0
2018-Jun-19 18:27N 37°57' E 023°36'0 0.0
2018-Jun-19 18:00N 37°57' E 023°36'0 0.0
2018-Jun-19 17:30N 37°57' E 023°36'0 0.0
2018-Jun-19 17:00N 37°57' E 023°36'0 0.0
2018-Jun-19 16:30N 37°57' E 023°36'0 0.0
2018-Jun-19 15:57N 37°57' E 023°36'0 0.0
2018-Jun-19 15:30N 37°57' E 023°36'0 0.0
2018-Jun-19 15:00N 37°57' E 023°36'0 0.0
2018-Jun-19 14:30N 37°57' E 023°36'0 0.0
2018-Jun-19 14:00N 37°57' E 023°36'0 0.0
2018-Jun-19 13:27N 37°57' E 023°36'0 0.0
2018-Jun-19 13:00N 37°57' E 023°36'0 0.0
2018-Jun-19 12:30N 37°57' E 023°36'0 0.0
2018-Jun-19 12:00N 37°57' E 023°36'0 0.0
2018-Jun-19 11:30N 37°57' E 023°36'0 0.0
2018-Jun-19 11:00N 37°57' E 023°36'0 0.0
2018-Jun-19 10:30N 37°57' E 023°36'0 0.0
2018-Jun-19 10:00N 37°57' E 023°36'1 1.4
2018-Jun-19 09:30N 37°57' E 023°36'2 3.5
2018-Jun-19 09:01N 37°55' E 023°35'3 5.5
2018-Jun-19 08:30N 37°53' E 023°36'1 1.3
2018-Jun-19 08:00N 37°52' E 023°36'0 0.8
2018-Jun-19 07:30N 37°52' E 023°36'0 0.7
2018-Jun-19 07:00N 37°52' E 023°35'0 0.3
2018-Jun-19 06:30N 37°52' E 023°35'0 0.6
2018-Jun-19 06:01N 37°52' E 023°35'0 0.5
2018-Jun-19 05:30N 37°52' E 023°36'0 0.5
2018-Jun-19 05:00N 37°52' E 023°36'0 0.3
2018-Jun-19 04:30N 37°53' E 023°36'0 0.2
2018-Jun-19 04:00N 37°53' E 023°36'0 0.1
2018-Jun-19 03:30N 37°53' E 023°36'0 0.1
2018-Jun-19 03:01N 37°53' E 023°36'0 0.1
2018-Jun-19 02:31N 37°53' E 023°36'0 0.2
2018-Jun-19 02:00N 37°53' E 023°36'0 0.3
2018-Jun-19 01:30N 37°53' E 023°36'3 6.9
2018-Jun-19 01:00N 37°50' E 023°39'713.3
2018-Jun-19 00:30N 37°44' E 023°43'815.1
2018-Jun-19 00:00N 37°37' E 023°47'815.5
2018-Jun-18 23:30N 37°30' E 023°49'57016.9
2018-Jun-17 13:49N 31°06' E 032°19'3 8.6
2018-Jun-17 13:30N 31°03' E 032°19'4 8.9
2018-Jun-17 13:00N 30°59' E 032°19'  
Track history (hours):
 
Tides and Currents Weather Stations Pressure Air Temp Water Temp Dewpoint Dewpoint Depression Visibility Wind Speed Wind Dir Waves Ship Positions

MSC Topaz

Last reported at 2018-Jun-22 18:30 UTC. Time now 2018-Jun-22 18:47 UTC.
Position N 41°18' E 002°09'.

Length 366 m; draft 15.6 m.

Type: Ship (hazmat cat A). MMSI: 636017916.

Date/timePositionNaut miles runAvg speedWind from/ knotsBaromVisibWave heightAir tempDewpointWater temp
2018-Jun-22 18:30N 41°18' E 002°09'1 2.1
2018-Jun-22 18:00N 41°19' E 002°10'1 2.5
2018-Jun-22 17:30N 41°18' E 002°11'3 6.4
2018-Jun-22 17:00N 41°15' E 002°13'1 2.8
2018-Jun-22 16:30N 41°15' E 002°14'0 0.5
2018-Jun-22 16:00N 41°15' E 002°15'0 0.7
2018-Jun-22 15:30N 41°15' E 002°15'1 2.6
2018-Jun-22 15:00N 41°14' E 002°17'611.3
2018-Jun-22 14:30N 41°12' E 002°23'815.3
2018-Jun-22 14:00N 41°08' E 002°32'918.8
2018-Jun-22 13:31N 41°04' E 002°43'1019.5
2018-Jun-22 13:01N 40°59' E 002°55'13519.5
2018-Jun-22 06:05N 39°56' E 005°31'219.7
2018-Jun-22 06:00N 39°55' E 005°33'1019.6
2018-Jun-22 05:30N 39°51' E 005°44'1019.5
2018-Jun-22 04:59N 39°46' E 005°56'2219.3
2018-Jun-22 03:50N 39°35' E 006°22'3719.8
2018-Jun-22 01:57N 39°17' E 007°04'919.8
2018-Jun-22 01:30N 39°13' E 007°14'2919.6
2018-Jun-22 00:01N 38°60' E 007°47'219.7
2018-Jun-21 23:56N 38°59' E 007°49'819.6
2018-Jun-21 23:30N 38°55' E 007°58'27819.2
2018-Jun-21 09:00N 36°54' E 013°16'919.2
2018-Jun-21 08:31N 36°51' E 013°27'1121.0
2018-Jun-21 08:00N 36°47' E 013°39'1120.9
2018-Jun-21 07:30N 36°43' E 013°52'1020.6
2018-Jun-21 07:00N 36°39' E 014°04'1019.2
2018-Jun-21 06:29N 36°36' E 014°15'817.1
2018-Jun-21 06:00N 36°33' E 014°25'916.8
2018-Jun-21 05:29N 36°30' E 014°35'916.2
2018-Jun-21 04:57N 36°29' E 014°45'42616.2
2018-Jun-20 02:40N 37°13' E 023°35'321.4
2018-Jun-20 02:30N 37°16' E 023°36'1020.9
2018-Jun-20 02:01N 37°27' E 023°39'1020.7
2018-Jun-20 01:31N 37°37' E 023°41'1020.3
2018-Jun-20 01:01N 37°46' E 023°37'816.3
2018-Jun-20 00:30N 37°55' E 023°37'2 4.7
2018-Jun-20 00:00N 37°57' E 023°36'1 1.2
2018-Jun-19 23:30N 37°57' E 023°36'0 0.0
2018-Jun-19 23:00N 37°57' E 023°36'0 0.0
2018-Jun-19 22:30N 37°57' E 023°36'0 0.0
2018-Jun-19 22:00N 37°57' E 023°36'0 0.0
2018-Jun-19 21:30N 37°57' E 023°36'0 0.0
2018-Jun-19 21:00N 37°57' E 023°36'0 0.0
2018-Jun-19 20:30N 37°57' E 023°36'0 0.0
2018-Jun-19 20:00N 37°57' E 023°36'0 0.0
2018-Jun-19 19:30N 37°57' E 023°36'0 0.0
2018-Jun-19 19:00N 37°57' E 023°36'0 0.0
2018-Jun-19 18:27N 37°57' E 023°36'0 0.0
2018-Jun-19 18:00N 37°57' E 023°36'0 0.0
2018-Jun-19 17:30N 37°57' E 023°36'0 0.0
2018-Jun-19 17:00N 37°57' E 023°36'0 0.0
2018-Jun-19 16:30N 37°57' E 023°36'0 0.0
2018-Jun-19 15:57N 37°57' E 023°36'0 0.0
2018-Jun-19 15:30N 37°57' E 023°36'0 0.0
2018-Jun-19 15:00N 37°57' E 023°36'0 0.0
2018-Jun-19 14:30N 37°57' E 023°36'0 0.0
2018-Jun-19 14:00N 37°57' E 023°36'0 0.0
2018-Jun-19 13:27N 37°57' E 023°36'0 0.0
2018-Jun-19 13:00N 37°57' E 023°36'0 0.0
2018-Jun-19 12:30N 37°57' E 023°36'0 0.0
2018-Jun-19 12:00N 37°57' E 023°36'0 0.0
2018-Jun-19 11:30N 37°57' E 023°36'0 0.0
2018-Jun-19 11:00N 37°57' E 023°36'0 0.0
2018-Jun-19 10:30N 37°57' E 023°36'0 0.0
2018-Jun-19 10:00N 37°57' E 023°36'1 1.4
2018-Jun-19 09:30N 37°57' E 023°36'2 3.5
2018-Jun-19 09:01N 37°55' E 023°35'3 5.5
2018-Jun-19 08:30N 37°53' E 023°36'1 1.3
2018-Jun-19 08:00N 37°52' E 023°36'0 0.8
2018-Jun-19 07:30N 37°52' E 023°36'0 0.7
2018-Jun-19 07:00N 37°52' E 023°35'0 0.3
2018-Jun-19 06:30N 37°52' E 023°35'0 0.6
2018-Jun-19 06:01N 37°52' E 023°35'0 0.5
2018-Jun-19 05:30N 37°52' E 023°36'0 0.5
2018-Jun-19 05:00N 37°52' E 023°36'0 0.3
2018-Jun-19 04:30N 37°53' E 023°36'0 0.2
2018-Jun-19 04:00N 37°53' E 023°36'0 0.1
2018-Jun-19 03:30N 37°53' E 023°36'0 0.1
2018-Jun-19 03:01N 37°53' E 023°36'0 0.1
2018-Jun-19 02:31N 37°53' E 023°36'0 0.2
2018-Jun-19 02:00N 37°53' E 023°36'0 0.3
2018-Jun-19 01:30N 37°53' E 023°36'3 6.9
2018-Jun-19 01:00N 37°50' E 023°39'713.3
2018-Jun-19 00:30N 37°44' E 023°43'815.1
2018-Jun-19 00:00N 37°37' E 023°47'815.5
2018-Jun-18 23:30N 37°30' E 023°49'57016.9
2018-Jun-17 13:49N 31°06' E 032°19'3 8.6
2018-Jun-17 13:30N 31°03' E 032°19'4 8.9
2018-Jun-17 13:00N 30°59' E 032°19'  

Dump ship's entire track history